sensor_id;sensor_type;location;lat;lon;timestamp;pressure;altitude;pressure_sealevel;temperature;humidity
15405;BME280;7801;48.124;11.590;2023-07-02T00:02:21;94885.47;;;18.14;94.51
15405;BME280;7801;48.124;11.590;2023-07-02T00:04:47;94888.16;;;18.14;94.89
15405;BME280;7801;48.124;11.590;2023-07-02T00:07:12;94892.13;;;18.20;94.23
15405;BME280;7801;48.124;11.590;2023-07-02T00:09:40;94890.06;;;18.13;94.39
15405;BME280;7801;48.124;11.590;2023-07-02T00:12:05;94885.44;;;17.95;95.70
15405;BME280;7801;48.124;11.590;2023-07-02T00:14:31;94889.56;;;18.08;94.99
15405;BME280;7801;48.124;11.590;2023-07-02T00:16:56;94881.13;;;18.09;94.79
15405;BME280;7801;48.124;11.590;2023-07-02T00:19:22;94882.78;;;18.14;94.52
15405;BME280;7801;48.124;11.590;2023-07-02T00:21:47;94881.72;;;18.18;94.15
15405;BME280;7801;48.124;11.590;2023-07-02T00:24:13;94892.66;;;18.10;94.49
15405;BME280;7801;48.124;11.590;2023-07-02T00:26:41;94889.00;;;18.18;93.78
15405;BME280;7801;48.124;11.590;2023-07-02T00:29:06;94891.84;;;18.25;93.62
15405;BME280;7801;48.124;11.590;2023-07-02T00:31:33;94899.91;;;18.25;93.58
15405;BME280;7801;48.124;11.590;2023-07-02T00:33:59;94889.25;;;18.29;92.88
15405;BME280;7801;48.124;11.590;2023-07-02T00:36:26;94898.06;;;18.29;92.87
15405;BME280;7801;48.124;11.590;2023-07-02T00:38:51;94897.22;;;18.25;92.93
15405;BME280;7801;48.124;11.590;2023-07-02T00:41:17;94905.41;;;18.32;92.21
15405;BME280;7801;48.124;11.590;2023-07-02T00:43:43;94893.19;;;18.35;92.49
15405;BME280;7801;48.124;11.590;2023-07-02T00:46:18;94894.13;;;18.42;91.87
15405;BME280;7801;48.124;11.590;2023-07-02T00:48:47;94891.97;;;18.32;92.77
15405;BME280;7801;48.124;11.590;2023-07-02T00:51:18;94899.22;;;18.28;92.75
15405;BME280;7801;48.124;11.590;2023-07-02T00:53:48;94883.56;;;18.14;93.51
15405;BME280;7801;48.124;11.590;2023-07-02T00:56:14;94888.41;;;18.09;94.04
15405;BME280;7801;48.124;11.590;2023-07-02T00:58:41;94888.03;;;18.07;94.82
15405;BME280;7801;48.124;11.590;2023-07-02T01:01:14;94897.38;;;17.97;95.45
15405;BME280;7801;48.124;11.590;2023-07-02T01:03:49;94897.62;;;18.08;94.82
15405;BME280;7801;48.124;11.590;2023-07-02T01:06:17;94892.66;;;18.10;94.68
15405;BME280;7801;48.124;11.590;2023-07-02T01:08:44;94895.16;;;18.18;94.35
15405;BME280;7801;48.124;11.590;2023-07-02T01:11:10;94897.53;;;18.04;95.81
15405;BME280;7801;48.124;11.590;2023-07-02T01:13:35;94902.31;;;17.95;96.30
15405;BME280;7801;48.124;11.590;2023-07-02T01:16:01;94903.66;;;17.85;96.87
15405;BME280;7801;48.124;11.590;2023-07-02T01:18:27;94902.94;;;17.89;97.11
15405;BME280;7801;48.124;11.590;2023-07-02T01:20:53;94910.97;;;17.89;97.25
15405;BME280;7801;48.124;11.590;2023-07-02T01:23:19;94903.03;;;17.92;97.28
15405;BME280;7801;48.124;11.590;2023-07-02T01:25:45;94906.22;;;17.98;97.00
15405;BME280;7801;48.124;11.590;2023-07-02T01:28:11;94917.13;;;18.05;97.00
15405;BME280;7801;48.124;11.590;2023-07-02T01:30:38;94910.75;;;18.13;96.60
15405;BME280;7801;48.124;11.590;2023-07-02T01:33:04;94919.22;;;17.96;97.28
15405;BME280;7801;48.124;11.590;2023-07-02T01:35:29;94913.22;;;18.02;97.07
15405;BME280;7801;48.124;11.590;2023-07-02T01:37:54;94913.44;;;18.13;96.32
15405;BME280;7801;48.124;11.590;2023-07-02T01:40:20;94912.44;;;18.02;96.89
15405;BME280;7801;48.124;11.590;2023-07-02T01:42:45;94911.75;;;18.05;97.27
15405;BME280;7801;48.124;11.590;2023-07-02T01:45:10;94908.16;;;17.81;98.46
15405;BME280;7801;48.124;11.590;2023-07-02T01:47:36;94916.16;;;17.97;97.28
15405;BME280;7801;48.124;11.590;2023-07-02T01:50:03;94917.37;;;18.00;97.26
15405;BME280;7801;48.124;11.590;2023-07-02T01:52:29;94913.84;;;17.96;97.30
15405;BME280;7801;48.124;11.590;2023-07-02T01:54:58;94907.94;;;17.90;97.79
15405;BME280;7801;48.124;11.590;2023-07-02T01:57:23;94913.12;;;17.99;97.03
15405;BME280;7801;48.124;11.590;2023-07-02T01:59:48;94912.84;;;17.84;98.07
15405;BME280;7801;48.124;11.590;2023-07-02T02:02:14;94914.12;;;17.75;98.39
15405;BME280;7801;48.124;11.590;2023-07-02T02:04:39;94913.84;;;17.96;97.32
15405;BME280;7801;48.124;11.590;2023-07-02T02:07:04;94910.97;;;17.89;97.49
15405;BME280;7801;48.124;11.590;2023-07-02T02:09:30;94912.38;;;17.98;97.18
15405;BME280;7801;48.124;11.590;2023-07-02T02:11:57;94913.44;;;18.13;95.94
15405;BME280;7801;48.124;11.590;2023-07-02T02:14:22;94916.00;;;18.06;96.37
15405;BME280;7801;48.124;11.590;2023-07-02T02:16:48;94924.03;;;18.06;96.14
15405;BME280;7801;48.124;11.590;2023-07-02T02:19:14;94913.75;;;18.08;95.76
15405;BME280;7801;48.124;11.590;2023-07-02T02:21:42;94904.19;;;18.10;95.78
15405;BME280;7801;48.124;11.590;2023-07-02T02:24:08;94902.56;;;18.06;96.06
15405;BME280;7801;48.124;11.590;2023-07-02T02:26:34;94907.06;;;18.02;96.12
15405;BME280;7801;48.124;11.590;2023-07-02T02:29:00;94912.50;;;17.86;96.96
15405;BME280;7801;48.124;11.590;2023-07-02T02:31:25;94917.47;;;17.87;96.87
15405;BME280;7801;48.124;11.590;2023-07-02T02:33:51;94919.75;;;17.85;97.19
15405;BME280;7801;48.124;11.590;2023-07-02T02:36:16;94922.16;;;17.91;97.04
15405;BME280;7801;48.124;11.590;2023-07-02T02:38:42;94917.91;;;17.90;97.08
15405;BME280;7801;48.124;11.590;2023-07-02T02:41:08;94918.97;;;17.85;96.92
15405;BME280;7801;48.124;11.590;2023-07-02T02:43:34;94908.47;;;17.96;96.04
15405;BME280;7801;48.124;11.590;2023-07-02T02:45:59;94909.25;;;17.96;96.45
15405;BME280;7801;48.124;11.590;2023-07-02T02:48:25;94913.88;;;17.80;96.79
15405;BME280;7801;48.124;11.590;2023-07-02T02:50:50;94907.91;;;17.87;96.41
15405;BME280;7801;48.124;11.590;2023-07-02T02:53:16;94914.97;;;17.95;95.89
15405;BME280;7801;48.124;11.590;2023-07-02T02:55:41;94913.06;;;17.95;95.91
15405;BME280;7801;48.124;11.590;2023-07-02T02:58:06;94917.56;;;17.91;95.69
15405;BME280;7801;48.124;11.590;2023-07-02T03:00:32;94919.91;;;17.93;95.67
15405;BME280;7801;48.124;11.590;2023-07-02T03:02:58;94919.72;;;18.01;95.57
15405;BME280;7801;48.124;11.590;2023-07-02T03:05:24;94919.03;;;17.89;95.68
15405;BME280;7801;48.124;11.590;2023-07-02T03:07:50;94919.47;;;17.91;95.39
15405;BME280;7801;48.124;11.590;2023-07-02T03:10:15;94917.22;;;17.93;95.54
15405;BME280;7801;48.124;11.590;2023-07-02T03:12:41;94918.63;;;17.87;95.84
15405;BME280;7801;48.124;11.590;2023-07-02T03:15:06;94925.81;;;17.82;96.24
15405;BME280;7801;48.124;11.590;2023-07-02T03:17:32;94931.28;;;17.86;96.54
15405;BME280;7801;48.124;11.590;2023-07-02T03:19:57;94943.75;;;17.78;97.93
15405;BME280;7801;48.124;11.590;2023-07-02T03:22:22;94934.72;;;17.87;97.72
15405;BME280;7801;48.124;11.590;2023-07-02T03:24:48;94936.88;;;17.97;97.62
15405;BME280;7801;48.124;11.590;2023-07-02T03:27:13;94934.53;;;17.95;97.58
15405;BME280;7801;48.124;11.590;2023-07-02T03:29:39;94980.69;;;18.01;97.40
15405;BME280;7801;48.124;11.590;2023-07-02T03:32:04;94985.78;;;18.06;93.22
15405;BME280;7801;48.124;11.590;2023-07-02T03:34:30;94994.63;;;17.91;90.40
15405;BME280;7801;48.124;11.590;2023-07-02T03:36:55;94991.84;;;17.56;86.32
15405;BME280;7801;48.124;11.590;2023-07-02T03:39:21;95003.84;;;17.46;87.23
15405;BME280;7801;48.124;11.590;2023-07-02T03:41:46;95010.50;;;17.52;89.41
15405;BME280;7801;48.124;11.590;2023-07-02T03:44:12;95009.19;;;17.46;89.99
15405;BME280;7801;48.124;11.590;2023-07-02T03:46:37;95009.03;;;17.39;88.72
15405;BME280;7801;48.124;11.590;2023-07-02T03:49:03;95019.75;;;17.23;90.14
15405;BME280;7801;48.124;11.590;2023-07-02T03:51:29;95022.59;;;17.30;90.39
15405;BME280;7801;48.124;11.590;2023-07-02T03:53:55;95027.94;;;17.30;90.74
15405;BME280;7801;48.124;11.590;2023-07-02T03:56:21;95015.75;;;17.33;90.50
15405;BME280;7801;48.124;11.590;2023-07-02T03:58:46;95029.69;;;17.23;91.33
15405;BME280;7801;48.124;11.590;2023-07-02T04:01:12;95036.84;;;17.18;91.30
15405;BME280;7801;48.124;11.590;2023-07-02T04:03:37;95032.75;;;17.09;90.78
15405;BME280;7801;48.124;11.590;2023-07-02T04:06:03;95037.81;;;16.98;91.39
15405;BME280;7801;48.124;11.590;2023-07-02T04:08:31;95034.81;;;17.00;91.72
15405;BME280;7801;48.124;11.590;2023-07-02T04:10:56;95033.66;;;16.61;92.60
15405;BME280;7801;48.124;11.590;2023-07-02T04:13:22;95037.00;;;16.70;92.75
15405;BME280;7801;48.124;11.590;2023-07-02T04:15:50;95033.66;;;16.48;93.77
15405;BME280;7801;48.124;11.590;2023-07-02T04:18:15;95029.22;;;16.40;94.65
15405;BME280;7801;48.124;11.590;2023-07-02T04:20:40;95039.16;;;16.40;94.50
15405;BME280;7801;48.124;11.590;2023-07-02T04:23:06;95037.47;;;16.47;94.59
15405;BME280;7801;48.124;11.590;2023-07-02T04:25:32;95044.72;;;16.23;95.66
15405;BME280;7801;48.124;11.590;2023-07-02T04:27:57;95035.16;;;16.09;95.77
15405;BME280;7801;48.124;11.590;2023-07-02T04:30:24;95029.91;;;16.25;95.54
15405;BME280;7801;48.124;11.590;2023-07-02T04:32:50;95026.56;;;16.28;96.16
15405;BME280;7801;48.124;11.590;2023-07-02T04:35:16;95025.44;;;16.29;95.05
15405;BME280;7801;48.124;11.590;2023-07-02T04:37:41;95022.53;;;16.34;95.14
15405;BME280;7801;48.124;11.590;2023-07-02T04:40:07;95033.22;;;16.59;94.89
15405;BME280;7801;48.124;11.590;2023-07-02T04:42:39;95034.34;;;16.58;95.25
15405;BME280;7801;48.124;11.590;2023-07-02T04:45:07;95024.28;;;16.67;95.43
15405;BME280;7801;48.124;11.590;2023-07-02T04:47:34;95032.31;;;16.55;95.58
15405;BME280;7801;48.124;11.590;2023-07-02T04:50:00;95027.06;;;16.70;95.43
15405;BME280;7801;48.124;11.590;2023-07-02T04:52:25;95029.63;;;16.79;95.23
15405;BME280;7801;48.124;11.590;2023-07-02T04:54:50;95029.84;;;16.74;94.83
15405;BME280;7801;48.124;11.590;2023-07-02T04:57:16;95026.69;;;16.84;94.47
15405;BME280;7801;48.124;11.590;2023-07-02T04:59:42;95026.00;;;16.87;94.23
15405;BME280;7801;48.124;11.590;2023-07-02T05:02:08;95036.28;;;16.85;94.45
15405;BME280;7801;48.124;11.590;2023-07-02T05:04:33;95036.34;;;16.48;95.14
15405;BME280;7801;48.124;11.590;2023-07-02T05:07:02;95047.28;;;16.56;95.69
15405;BME280;7801;48.124;11.590;2023-07-02T05:09:28;95049.16;;;16.55;94.41
15405;BME280;7801;48.124;11.590;2023-07-02T05:11:53;95049.72;;;16.61;94.53
15405;BME280;7801;48.124;11.590;2023-07-02T05:14:18;95054.97;;;16.57;94.82
15405;BME280;7801;48.124;11.590;2023-07-02T05:16:44;95049.75;;;16.36;95.52
15405;BME280;7801;48.124;11.590;2023-07-02T05:19:09;95051.31;;;16.25;96.01
15405;BME280;7801;48.124;11.590;2023-07-02T05:21:34;95045.72;;;16.42;95.42
15405;BME280;7801;48.124;11.590;2023-07-02T05:24:00;95061.56;;;16.60;95.44
15405;BME280;7801;48.124;11.590;2023-07-02T05:26:25;95057.22;;;16.31;96.12
15405;BME280;7801;48.124;11.590;2023-07-02T05:28:52;95055.56;;;16.26;96.47
15405;BME280;7801;48.124;11.590;2023-07-02T05:31:17;95062.00;;;16.49;96.34
15405;BME280;7801;48.124;11.590;2023-07-02T05:33:42;95065.94;;;16.40;96.42
15405;BME280;7801;48.124;11.590;2023-07-02T05:36:08;95061.56;;;16.47;96.50
15405;BME280;7801;48.124;11.590;2023-07-02T05:38:33;95062.34;;;16.48;96.46
15405;BME280;7801;48.124;11.590;2023-07-02T05:40:58;95061.66;;;16.75;95.92
15405;BME280;7801;48.124;11.590;2023-07-02T05:43:24;95059.63;;;16.84;95.94
15405;BME280;7801;48.124;11.590;2023-07-02T05:45:50;95060.59;;;16.92;95.78
15405;BME280;7801;48.124;11.590;2023-07-02T05:48:16;95055.47;;;16.87;95.00
15405;BME280;7801;48.124;11.590;2023-07-02T05:50:42;95062.75;;;16.87;95.09
15405;BME280;7801;48.124;11.590;2023-07-02T05:53:07;95061.16;;;16.98;94.77
15405;BME280;7801;48.124;11.590;2023-07-02T05:55:34;95063.72;;;16.94;94.77
15405;BME280;7801;48.124;11.590;2023-07-02T05:57:59;95062.22;;;17.09;93.83
15405;BME280;7801;48.124;11.590;2023-07-02T06:00:26;95063.78;;;17.10;94.67
15405;BME280;7801;48.124;11.590;2023-07-02T06:02:52;95065.25;;;17.07;94.75
15405;BME280;7801;48.124;11.590;2023-07-02T06:05:17;95073.94;;;17.16;93.66
15405;BME280;7801;48.124;11.590;2023-07-02T06:07:43;95065.50;;;17.02;93.32
15405;BME280;7801;48.124;11.590;2023-07-02T06:10:08;95064.78;;;17.05;93.60
15405;BME280;7801;48.124;11.590;2023-07-02T06:12:34;95067.75;;;17.00;94.53
15405;BME280;7801;48.124;11.590;2023-07-02T06:14:59;95070.47;;;17.16;93.42
15405;BME280;7801;48.124;11.590;2023-07-02T06:17:24;95077.97;;;17.10;93.09
15405;BME280;7801;48.124;11.590;2023-07-02T06:19:50;95090.63;;;16.98;93.03
15405;BME280;7801;48.124;11.590;2023-07-02T06:22:15;95074.75;;;17.05;93.27
15405;BME280;7801;48.124;11.590;2023-07-02T06:24:40;95075.78;;;17.00;93.72
15405;BME280;7801;48.124;11.590;2023-07-02T06:27:06;95086.34;;;17.09;93.20
15405;BME280;7801;48.124;11.590;2023-07-02T06:29:31;95079.31;;;17.04;94.14
15405;BME280;7801;48.124;11.590;2023-07-02T06:31:56;95084.59;;;17.01;93.78
15405;BME280;7801;48.124;11.590;2023-07-02T06:34:22;95087.06;;;16.94;94.27
15405;BME280;7801;48.124;11.590;2023-07-02T06:36:47;95087.72;;;17.03;94.45
15405;BME280;7801;48.124;11.590;2023-07-02T06:39:13;95094.22;;;17.02;94.49
15405;BME280;7801;48.124;11.590;2023-07-02T06:41:38;95092.13;;;16.71;95.11
15405;BME280;7801;48.124;11.590;2023-07-02T06:44:04;95078.72;;;16.83;95.61
15405;BME280;7801;48.124;11.590;2023-07-02T06:46:29;95085.91;;;17.07;95.06
15405;BME280;7801;48.124;11.590;2023-07-02T06:48:56;95093.28;;;17.10;95.20
15405;BME280;7801;48.124;11.590;2023-07-02T06:51:22;95098.78;;;16.89;95.65
15405;BME280;7801;48.124;11.590;2023-07-02T06:53:47;95104.94;;;16.90;95.46
15405;BME280;7801;48.124;11.590;2023-07-02T06:56:13;95095.44;;;16.92;95.80
15405;BME280;7801;48.124;11.590;2023-07-02T06:58:44;95100.56;;;16.97;95.70
15405;BME280;7801;48.124;11.590;2023-07-02T07:01:10;95108.44;;;16.78;97.03
15405;BME280;7801;48.124;11.590;2023-07-02T07:03:35;95108.94;;;16.96;97.18
15405;BME280;7801;48.124;11.590;2023-07-02T07:06:01;95117.72;;;17.08;96.62
15405;BME280;7801;48.124;11.590;2023-07-02T07:08:26;95120.72;;;16.79;97.86
15405;BME280;7801;48.124;11.590;2023-07-02T07:10:52;95124.06;;;16.64;98.57
15405;BME280;7801;48.124;11.590;2023-07-02T07:13:17;95120.34;;;16.93;97.02
15405;BME280;7801;48.124;11.590;2023-07-02T07:15:43;95121.81;;;16.66;97.84
15405;BME280;7801;48.124;11.590;2023-07-02T07:18:09;95119.94;;;16.66;98.76
15405;BME280;7801;48.124;11.590;2023-07-02T07:20:34;95121.59;;;16.46;100.00
15405;BME280;7801;48.124;11.590;2023-07-02T07:23:02;95121.16;;;16.57;100.00
15405;BME280;7801;48.124;11.590;2023-07-02T07:25:28;95130.75;;;16.70;99.55
15405;BME280;7801;48.124;11.590;2023-07-02T07:27:53;95129.50;;;16.92;98.37
15405;BME280;7801;48.124;11.590;2023-07-02T07:30:19;95132.06;;;17.00;97.63
15405;BME280;7801;48.124;11.590;2023-07-02T07:32:49;95124.81;;;16.89;96.99
15405;BME280;7801;48.124;11.590;2023-07-02T07:35:14;95133.19;;;16.63;98.02
15405;BME280;7801;48.124;11.590;2023-07-02T07:37:40;95121.69;;;16.87;97.07
15405;BME280;7801;48.124;11.590;2023-07-02T07:40:06;95131.59;;;17.10;95.35
15405;BME280;7801;48.124;11.590;2023-07-02T07:42:31;95132.50;;;17.02;96.52
15405;BME280;7801;48.124;11.590;2023-07-02T07:44:56;95137.28;;;17.09;96.06
15405;BME280;7801;48.124;11.590;2023-07-02T07:47:22;95137.72;;;17.11;95.58
15405;BME280;7801;48.124;11.590;2023-07-02T07:49:47;95144.09;;;17.06;95.99
15405;BME280;7801;48.124;11.590;2023-07-02T07:52:12;95136.09;;;16.94;96.95
15405;BME280;7801;48.124;11.590;2023-07-02T07:54:38;95147.50;;;16.79;97.39
15405;BME280;7801;48.124;11.590;2023-07-02T07:57:04;95156.62;;;17.02;97.39
15405;BME280;7801;48.124;11.590;2023-07-02T07:59:29;95156.16;;;17.12;96.81
15405;BME280;7801;48.124;11.590;2023-07-02T08:01:55;95153.50;;;17.00;97.80
15405;BME280;7801;48.124;11.590;2023-07-02T08:04:20;95140.56;;;16.90;98.88
15405;BME280;7801;48.124;11.590;2023-07-02T08:06:45;95143.25;;;16.90;99.55
15405;BME280;7801;48.124;11.590;2023-07-02T08:09:11;95140.78;;;16.85;98.20
15405;BME280;7801;48.124;11.590;2023-07-02T08:11:36;95139.06;;;17.05;97.66
15405;BME280;7801;48.124;11.590;2023-07-02T08:14:01;95149.00;;;17.16;97.35
15405;BME280;7801;48.124;11.590;2023-07-02T08:16:27;95143.88;;;17.11;98.74
15405;BME280;7801;48.124;11.590;2023-07-02T08:18:52;95146.53;;;17.24;98.32
15405;BME280;7801;48.124;11.590;2023-07-02T08:21:17;95154.16;;;17.09;99.82
15405;BME280;7801;48.124;11.590;2023-07-02T08:23:43;95149.09;;;17.20;100.00
15405;BME280;7801;48.124;11.590;2023-07-02T08:26:11;95152.69;;;17.24;99.94
15405;BME280;7801;48.124;11.590;2023-07-02T08:28:37;95154.44;;;17.32;99.19
15405;BME280;7801;48.124;11.590;2023-07-02T08:31:05;95156.50;;;17.11;100.00
15405;BME280;7801;48.124;11.590;2023-07-02T08:33:31;95155.69;;;17.23;100.00
15405;BME280;7801;48.124;11.590;2023-07-02T08:35:56;95163.41;;;17.24;100.00
15405;BME280;7801;48.124;11.590;2023-07-02T08:38:22;95170.22;;;17.22;100.00
15405;BME280;7801;48.124;11.590;2023-07-02T08:40:49;95168.87;;;17.15;99.68
15405;BME280;7801;48.124;11.590;2023-07-02T08:43:14;95169.34;;;17.05;100.00
15405;BME280;7801;48.124;11.590;2023-07-02T08:45:42;95168.41;;;17.26;100.00
15405;BME280;7801;48.124;11.590;2023-07-02T08:48:08;95168.56;;;17.17;100.00
15405;BME280;7801;48.124;11.590;2023-07-02T08:50:34;95173.75;;;17.26;100.00
15405;BME280;7801;48.124;11.590;2023-07-02T08:52:59;95174.44;;;17.35;99.26
15405;BME280;7801;48.124;11.590;2023-07-02T08:55:24;95176.25;;;17.18;100.00
15405;BME280;7801;48.124;11.590;2023-07-02T08:57:53;95176.06;;;16.99;100.00
15405;BME280;7801;48.124;11.590;2023-07-02T09:00:18;95187.25;;;17.01;100.00
15405;BME280;7801;48.124;11.590;2023-07-02T09:02:44;95185.19;;;17.10;100.00
15405;BME280;7801;48.124;11.590;2023-07-02T09:05:11;95190.38;;;17.03;100.00
15405;BME280;7801;48.124;11.590;2023-07-02T09:07:44;95187.91;;;16.98;100.00
15405;BME280;7801;48.124;11.590;2023-07-02T09:10:10;95181.72;;;17.10;100.00
15405;BME280;7801;48.124;11.590;2023-07-02T09:12:35;95193.91;;;17.07;100.00
15405;BME280;7801;48.124;11.590;2023-07-02T09:15:03;95183.87;;;16.92;100.00
15405;BME280;7801;48.124;11.590;2023-07-02T09:17:33;95188.09;;;17.05;100.00
15405;BME280;7801;48.124;11.590;2023-07-02T09:20:00;95190.69;;;16.90;100.00
15405;BME280;7801;48.124;11.590;2023-07-02T09:22:26;95190.25;;;16.88;100.00
15405;BME280;7801;48.124;11.590;2023-07-02T09:24:57;95187.00;;;16.94;100.00
15405;BME280;7801;48.124;11.590;2023-07-02T09:27:39;95191.25;;;16.95;100.00
15405;BME280;7801;48.124;11.590;2023-07-02T09:30:12;95193.38;;;16.90;100.00
15405;BME280;7801;48.124;11.590;2023-07-02T09:32:44;95185.78;;;17.04;100.00
15405;BME280;7801;48.124;11.590;2023-07-02T09:35:10;95195.06;;;16.94;100.00
15405;BME280;7801;48.124;11.590;2023-07-02T09:37:36;95193.94;;;16.95;100.00
15405;BME280;7801;48.124;11.590;2023-07-02T09:40:02;95195.91;;;17.10;100.00
15405;BME280;7801;48.124;11.590;2023-07-02T09:42:31;95195.81;;;17.07;100.00
15405;BME280;7801;48.124;11.590;2023-07-02T09:44:58;95200.41;;;16.94;100.00
15405;BME280;7801;48.124;11.590;2023-07-02T09:47:24;95194.91;;;17.15;100.00
15405;BME280;7801;48.124;11.590;2023-07-02T09:50:02;95193.91;;;17.20;100.00
15405;BME280;7801;48.124;11.590;2023-07-02T09:52:30;95196.59;;;17.07;100.00
15405;BME280;7801;48.124;11.590;2023-07-02T09:54:56;95195.72;;;17.03;100.00
15405;BME280;7801;48.124;11.590;2023-07-02T09:57:22;95196.03;;;17.14;100.00
15405;BME280;7801;48.124;11.590;2023-07-02T09:59:47;95205.53;;;17.11;100.00
15405;BME280;7801;48.124;11.590;2023-07-02T10:02:13;95203.97;;;16.98;100.00
15405;BME280;7801;48.124;11.590;2023-07-02T10:04:43;95197.03;;;17.09;100.00
15405;BME280;7801;48.124;11.590;2023-07-02T10:07:09;95194.00;;;17.23;100.00
15405;BME280;7801;48.124;11.590;2023-07-02T10:09:38;95185.63;;;17.25;100.00
15405;BME280;7801;48.124;11.590;2023-07-02T10:12:25;95188.81;;;17.42;100.00
15405;BME280;7801;48.124;11.590;2023-07-02T10:14:52;95198.87;;;17.45;100.00
15405;BME280;7801;48.124;11.590;2023-07-02T10:17:34;95195.31;;;17.29;100.00
15405;BME280;7801;48.124;11.590;2023-07-02T10:20:05;95187.12;;;17.50;100.00
15405;BME280;7801;48.124;11.590;2023-07-02T10:25:09;95182.75;;;17.58;100.00
15405;BME280;7801;48.124;11.590;2023-07-02T10:27:35;95180.50;;;17.87;100.00
15405;BME280;7801;48.124;11.590;2023-07-02T10:30:01;95180.66;;;18.07;99.36
15405;BME280;7801;48.124;11.590;2023-07-02T10:32:28;95178.56;;;18.00;97.64
15405;BME280;7801;48.124;11.590;2023-07-02T10:34:54;95177.44;;;18.17;98.46
15405;BME280;7801;48.124;11.590;2023-07-02T10:37:20;95178.03;;;18.10;99.34
15405;BME280;7801;48.124;11.590;2023-07-02T10:39:45;95176.69;;;18.32;98.25
15405;BME280;7801;48.124;11.590;2023-07-02T10:42:11;95178.19;;;18.45;98.43
15405;BME280;7801;48.124;11.590;2023-07-02T10:44:52;95179.62;;;18.59;95.97
15405;BME280;7801;48.124;11.590;2023-07-02T10:47:18;95183.81;;;18.72;93.01
15405;BME280;7801;48.124;11.590;2023-07-02T10:49:44;95170.81;;;18.74;91.96
15405;BME280;7801;48.124;11.590;2023-07-02T10:52:09;95172.28;;;18.87;90.91
15405;BME280;7801;48.124;11.590;2023-07-02T10:54:41;95171.41;;;18.83;92.26
15405;BME280;7801;48.124;11.590;2023-07-02T10:57:08;95170.25;;;19.00;91.44
15405;BME280;7801;48.124;11.590;2023-07-02T10:59:34;95167.38;;;19.08;89.66
15405;BME280;7801;48.124;11.590;2023-07-02T11:01:59;95169.94;;;19.20;89.76
15405;BME280;7801;48.124;11.590;2023-07-02T11:04:27;95185.91;;;19.13;89.16
15405;BME280;7801;48.124;11.590;2023-07-02T11:06:53;95172.19;;;19.18;89.95
15405;BME280;7801;48.124;11.590;2023-07-02T11:09:19;95170.44;;;19.26;89.78
15405;BME280;7801;48.124;11.590;2023-07-02T11:11:53;95166.97;;;19.26;88.28
15405;BME280;7801;48.124;11.590;2023-07-02T11:14:30;95165.78;;;19.42;88.91
15405;BME280;7801;48.124;11.590;2023-07-02T11:16:57;95161.28;;;19.46;89.17
15405;BME280;7801;48.124;11.590;2023-07-02T11:19:22;95159.72;;;19.45;88.72
15405;BME280;7801;48.124;11.590;2023-07-02T11:21:55;95162.72;;;19.60;88.26
15405;BME280;7801;48.124;11.590;2023-07-02T11:24:37;95154.19;;;19.77;87.72
15405;BME280;7801;48.124;11.590;2023-07-02T11:27:04;95155.97;;;19.88;88.66
15405;BME280;7801;48.124;11.590;2023-07-02T11:29:31;95151.72;;;19.87;85.36
15405;BME280;7801;48.124;11.590;2023-07-02T11:32:08;95155.09;;;20.04;86.20
15405;BME280;7801;48.124;11.590;2023-07-02T11:34:35;95148.94;;;20.26;86.87
15405;BME280;7801;48.124;11.590;2023-07-02T11:37:00;95146.03;;;20.35;85.45
15405;BME280;7801;48.124;11.590;2023-07-02T11:39:25;95143.69;;;20.33;83.38
15405;BME280;7801;48.124;11.590;2023-07-02T11:41:52;95147.38;;;20.25;84.85
15405;BME280;7801;48.124;11.590;2023-07-02T11:44:17;95136.59;;;20.25;85.17
15405;BME280;7801;48.124;11.590;2023-07-02T11:46:43;95143.91;;;20.24;84.55
15405;BME280;7801;48.124;11.590;2023-07-02T11:49:09;95136.97;;;20.23;83.74
15405;BME280;7801;48.124;11.590;2023-07-02T11:51:38;95139.25;;;20.44;83.33
15405;BME280;7801;48.124;11.590;2023-07-02T11:54:04;95130.16;;;20.52;82.42
15405;BME280;7801;48.124;11.590;2023-07-02T11:56:30;95131.72;;;20.53;83.30
15405;BME280;7801;48.124;11.590;2023-07-02T11:58:55;95125.81;;;20.71;83.98
15405;BME280;7801;48.124;11.590;2023-07-02T12:01:21;95121.16;;;20.68;81.52
15405;BME280;7801;48.124;11.590;2023-07-02T12:03:46;95130.25;;;20.59;82.47
15405;BME280;7801;48.124;11.590;2023-07-02T12:06:11;95121.94;;;20.68;82.12
15405;BME280;7801;48.124;11.590;2023-07-02T12:08:37;95115.84;;;20.48;81.67
15405;BME280;7801;48.124;11.590;2023-07-02T12:11:02;95112.06;;;20.53;81.04
15405;BME280;7801;48.124;11.590;2023-07-02T12:13:27;95112.22;;;20.64;83.19
15405;BME280;7801;48.124;11.590;2023-07-02T12:15:53;95106.94;;;20.71;82.91
15405;BME280;7801;48.124;11.590;2023-07-02T12:18:18;95096.47;;;20.66;82.78
15405;BME280;7801;48.124;11.590;2023-07-02T12:20:44;95105.75;;;20.68;82.40
15405;BME280;7801;48.124;11.590;2023-07-02T12:23:10;95108.88;;;20.70;80.73
15405;BME280;7801;48.124;11.590;2023-07-02T12:25:36;95101.06;;;20.65;81.29
15405;BME280;7801;48.124;11.590;2023-07-02T12:28:03;95100.06;;;20.73;79.33
15405;BME280;7801;48.124;11.590;2023-07-02T12:30:29;95101.19;;;20.72;80.30
15405;BME280;7801;48.124;11.590;2023-07-02T12:32:55;95091.19;;;20.73;78.94
15405;BME280;7801;48.124;11.590;2023-07-02T12:35:20;95086.56;;;20.73;80.57
15405;BME280;7801;48.124;11.590;2023-07-02T12:37:48;95097.12;;;20.85;78.85
15405;BME280;7801;48.124;11.590;2023-07-02T12:40:13;95089.94;;;20.93;78.37
15405;BME280;7801;48.124;11.590;2023-07-02T12:42:43;95090.94;;;21.11;78.54
15405;BME280;7801;48.124;11.590;2023-07-02T12:45:09;95094.09;;;21.17;77.41
15405;BME280;7801;48.124;11.590;2023-07-02T12:47:36;95091.56;;;21.27;75.74
15405;BME280;7801;48.124;11.590;2023-07-02T12:50:02;95085.44;;;21.31;76.76
15405;BME280;7801;48.124;11.590;2023-07-02T12:52:28;95089.78;;;21.39;75.05
15405;BME280;7801;48.124;11.590;2023-07-02T12:54:54;95081.75;;;21.46;74.56
15405;BME280;7801;48.124;11.590;2023-07-02T12:57:19;95083.22;;;21.40;75.11